sensor_id;sensor_type;location;lat;lon;timestamp;P1;durP1;ratioP1;P2;durP2;ratioP2
2728;SDS011;1372;47.956;7.830;2023-05-07T00:00:07;4.47;;;2.37;;
2728;SDS011;1372;47.956;7.830;2023-05-07T00:02:39;2.23;;;2.03;;
2728;SDS011;1372;47.956;7.830;2023-05-07T00:05:08;4.53;;;2.30;;
2728;SDS011;1372;47.956;7.830;2023-05-07T00:07:37;4.03;;;2.37;;
2728;SDS011;1372;47.956;7.830;2023-05-07T00:10:07;3.70;;;2.50;;
2728;SDS011;1372;47.956;7.830;2023-05-07T00:12:41;3.17;;;2.20;;
2728;SDS011;1372;47.956;7.830;2023-05-07T00:15:10;3.60;;;2.37;;
2728;SDS011;1372;47.956;7.830;2023-05-07T00:17:41;2.97;;;2.50;;
2728;SDS011;1372;47.956;7.830;2023-05-07T00:20:10;2.10;;;2.00;;
2728;SDS011;1372;47.956;7.830;2023-05-07T00:22:40;4.00;;;2.23;;
2728;SDS011;1372;47.956;7.830;2023-05-07T00:25:08;2.77;;;2.57;;
2728;SDS011;1372;47.956;7.830;2023-05-07T00:27:38;2.40;;;2.10;;
2728;SDS011;1372;47.956;7.830;2023-05-07T00:30:07;2.10;;;2.00;;
2728;SDS011;1372;47.956;7.830;2023-05-07T00:32:36;2.27;;;2.10;;
2728;SDS011;1372;47.956;7.830;2023-05-07T00:35:08;3.07;;;2.27;;
2728;SDS011;1372;47.956;7.830;2023-05-07T00:37:37;2.50;;;2.30;;
2728;SDS011;1372;47.956;7.830;2023-05-07T00:40:07;2.07;;;1.97;;
2728;SDS011;1372;47.956;7.830;2023-05-07T00:42:36;2.20;;;2.10;;
2728;SDS011;1372;47.956;7.830;2023-05-07T00:45:06;3.53;;;2.50;;
2728;SDS011;1372;47.956;7.830;2023-05-07T00:47:37;3.57;;;3.27;;
2728;SDS011;1372;47.956;7.830;2023-05-07T00:50:09;2.47;;;2.20;;
2728;SDS011;1372;47.956;7.830;2023-05-07T00:52:39;2.57;;;2.30;;
2728;SDS011;1372;47.956;7.830;2023-05-07T00:55:09;3.00;;;2.80;;
2728;SDS011;1372;47.956;7.830;2023-05-07T00:57:40;3.50;;;2.30;;
2728;SDS011;1372;47.956;7.830;2023-05-07T01:00:10;2.50;;;2.30;;
2728;SDS011;1372;47.956;7.830;2023-05-07T01:02:40;3.33;;;2.47;;
2728;SDS011;1372;47.956;7.830;2023-05-07T01:05:12;2.57;;;2.10;;
2728;SDS011;1372;47.956;7.830;2023-05-07T01:07:43;2.60;;;2.00;;
2728;SDS011;1372;47.956;7.830;2023-05-07T01:10:12;2.77;;;2.53;;
2728;SDS011;1372;47.956;7.830;2023-05-07T01:12:42;2.07;;;1.90;;
2728;SDS011;1372;47.956;7.830;2023-05-07T01:15:13;2.20;;;2.10;;
2728;SDS011;1372;47.956;7.830;2023-05-07T01:17:45;4.13;;;2.70;;
2728;SDS011;1372;47.956;7.830;2023-05-07T01:20:15;2.57;;;2.37;;
2728;SDS011;1372;47.956;7.830;2023-05-07T01:22:47;2.90;;;2.70;;
2728;SDS011;1372;47.956;7.830;2023-05-07T01:25:17;3.10;;;2.30;;
2728;SDS011;1372;47.956;7.830;2023-05-07T01:27:49;2.70;;;2.50;;
2728;SDS011;1372;47.956;7.830;2023-05-07T01:30:18;2.47;;;2.30;;
2728;SDS011;1372;47.956;7.830;2023-05-07T01:32:51;2.93;;;2.63;;
2728;SDS011;1372;47.956;7.830;2023-05-07T01:35:26;2.70;;;2.50;;
2728;SDS011;1372;47.956;7.830;2023-05-07T01:38:02;4.30;;;2.60;;
2728;SDS011;1372;47.956;7.830;2023-05-07T01:40:32;2.70;;;2.50;;
2728;SDS011;1372;47.956;7.830;2023-05-07T01:43:02;3.30;;;2.50;;
2728;SDS011;1372;47.956;7.830;2023-05-07T01:45:31;4.80;;;2.60;;
2728;SDS011;1372;47.956;7.830;2023-05-07T01:48:02;3.00;;;2.67;;
2728;SDS011;1372;47.956;7.830;2023-05-07T01:50:32;3.03;;;2.30;;
2728;SDS011;1372;47.956;7.830;2023-05-07T01:53:03;2.50;;;2.27;;
2728;SDS011;1372;47.956;7.830;2023-05-07T01:55:32;3.10;;;2.30;;
2728;SDS011;1372;47.956;7.830;2023-05-07T01:58:00;3.00;;;2.80;;
2728;SDS011;1372;47.956;7.830;2023-05-07T02:00:29;3.00;;;2.37;;
2728;SDS011;1372;47.956;7.830;2023-05-07T02:02:58;3.00;;;2.30;;
2728;SDS011;1372;47.956;7.830;2023-05-07T02:05:27;2.57;;;2.40;;
2728;SDS011;1372;47.956;7.830;2023-05-07T02:07:56;2.10;;;2.00;;
2728;SDS011;1372;47.956;7.830;2023-05-07T02:10:26;2.60;;;2.23;;
2728;SDS011;1372;47.956;7.830;2023-05-07T02:12:55;2.27;;;2.13;;
2728;SDS011;1372;47.956;7.830;2023-05-07T02:15:24;2.97;;;2.63;;
2728;SDS011;1372;47.956;7.830;2023-05-07T02:17:59;2.73;;;2.40;;
2728;SDS011;1372;47.956;7.830;2023-05-07T02:20:30;3.27;;;2.60;;
2728;SDS011;1372;47.956;7.830;2023-05-07T02:22:59;2.53;;;2.33;;
2728;SDS011;1372;47.956;7.830;2023-05-07T02:25:29;2.67;;;2.47;;
2728;SDS011;1372;47.956;7.830;2023-05-07T02:27:58;3.80;;;2.50;;
2728;SDS011;1372;47.956;7.830;2023-05-07T02:30:29;2.87;;;2.60;;
2728;SDS011;1372;47.956;7.830;2023-05-07T02:32:57;2.43;;;2.17;;
2728;SDS011;1372;47.956;7.830;2023-05-07T02:35:26;2.43;;;2.23;;
2728;SDS011;1372;47.956;7.830;2023-05-07T02:37:55;2.43;;;2.23;;
2728;SDS011;1372;47.956;7.830;2023-05-07T02:40:24;3.30;;;2.50;;
2728;SDS011;1372;47.956;7.830;2023-05-07T02:42:54;2.70;;;2.50;;
2728;SDS011;1372;47.956;7.830;2023-05-07T02:45:23;3.03;;;2.30;;
2728;SDS011;1372;47.956;7.830;2023-05-07T02:47:51;2.50;;;2.30;;
2728;SDS011;1372;47.956;7.830;2023-05-07T02:50:20;3.93;;;2.43;;
2728;SDS011;1372;47.956;7.830;2023-05-07T02:52:49;2.90;;;2.60;;
2728;SDS011;1372;47.956;7.830;2023-05-07T02:55:18;2.60;;;2.40;;
2728;SDS011;1372;47.956;7.830;2023-05-07T02:57:47;3.90;;;2.47;;
2728;SDS011;1372;47.956;7.830;2023-05-07T03:00:18;3.20;;;2.53;;
2728;SDS011;1372;47.956;7.830;2023-05-07T03:02:48;2.30;;;2.10;;
2728;SDS011;1372;47.956;7.830;2023-05-07T03:05:16;2.60;;;2.40;;
2728;SDS011;1372;47.956;7.830;2023-05-07T03:07:45;2.80;;;2.60;;
2728;SDS011;1372;47.956;7.830;2023-05-07T03:10:14;4.43;;;2.73;;
2728;SDS011;1372;47.956;7.830;2023-05-07T03:12:43;2.60;;;2.30;;
2728;SDS011;1372;47.956;7.830;2023-05-07T03:15:12;2.87;;;2.50;;
2728;SDS011;1372;47.956;7.830;2023-05-07T03:17:42;2.67;;;2.43;;
2728;SDS011;1372;47.956;7.830;2023-05-07T03:20:11;2.00;;;1.90;;
2728;SDS011;1372;47.956;7.830;2023-05-07T03:22:40;2.67;;;2.47;;
2728;SDS011;1372;47.956;7.830;2023-05-07T03:25:11;2.97;;;2.60;;
2728;SDS011;1372;47.956;7.830;2023-05-07T03:27:40;2.60;;;2.40;;
2728;SDS011;1372;47.956;7.830;2023-05-07T03:30:10;2.80;;;2.60;;
2728;SDS011;1372;47.956;7.830;2023-05-07T03:32:40;2.97;;;2.70;;
2728;SDS011;1372;47.956;7.830;2023-05-07T03:35:10;3.67;;;3.00;;
2728;SDS011;1372;47.956;7.830;2023-05-07T03:37:39;2.83;;;2.63;;
2728;SDS011;1372;47.956;7.830;2023-05-07T03:40:08;2.80;;;2.60;;
2728;SDS011;1372;47.956;7.830;2023-05-07T03:42:39;2.57;;;2.37;;
2728;SDS011;1372;47.956;7.830;2023-05-07T03:45:09;3.27;;;3.03;;
2728;SDS011;1372;47.956;7.830;2023-05-07T03:47:38;2.60;;;2.40;;
2728;SDS011;1372;47.956;7.830;2023-05-07T03:50:09;2.67;;;2.47;;
2728;SDS011;1372;47.956;7.830;2023-05-07T03:52:38;3.83;;;3.27;;
2728;SDS011;1372;47.956;7.830;2023-05-07T03:55:07;4.07;;;2.60;;
2728;SDS011;1372;47.956;7.830;2023-05-07T03:57:37;3.80;;;2.70;;
2728;SDS011;1372;47.956;7.830;2023-05-07T04:00:06;2.57;;;2.37;;
2728;SDS011;1372;47.956;7.830;2023-05-07T04:02:36;2.53;;;2.33;;
2728;SDS011;1372;47.956;7.830;2023-05-07T04:05:05;2.80;;;2.60;;
2728;SDS011;1372;47.956;7.830;2023-05-07T04:07:36;2.37;;;2.17;;
2728;SDS011;1372;47.956;7.830;2023-05-07T04:10:04;3.57;;;3.03;;
2728;SDS011;1372;47.956;7.830;2023-05-07T04:12:34;5.80;;;2.50;;
2728;SDS011;1372;47.956;7.830;2023-05-07T04:15:03;5.70;;;2.93;;
2728;SDS011;1372;47.956;7.830;2023-05-07T04:17:32;3.40;;;3.10;;
2728;SDS011;1372;47.956;7.830;2023-05-07T04:20:01;3.00;;;2.23;;
2728;SDS011;1372;47.956;7.830;2023-05-07T04:22:31;2.77;;;2.30;;
2728;SDS011;1372;47.956;7.830;2023-05-07T04:25:01;2.50;;;2.30;;
2728;SDS011;1372;47.956;7.830;2023-05-07T04:27:32;2.50;;;2.30;;
2728;SDS011;1372;47.956;7.830;2023-05-07T04:30:01;3.10;;;2.80;;
2728;SDS011;1372;47.956;7.830;2023-05-07T04:32:30;2.80;;;2.50;;
2728;SDS011;1372;47.956;7.830;2023-05-07T04:34:58;3.30;;;3.00;;
2728;SDS011;1372;47.956;7.830;2023-05-07T04:37:27;2.60;;;2.40;;
2728;SDS011;1372;47.956;7.830;2023-05-07T04:39:57;4.00;;;2.97;;
2728;SDS011;1372;47.956;7.830;2023-05-07T04:42:27;2.73;;;2.53;;
2728;SDS011;1372;47.956;7.830;2023-05-07T04:44:56;5.20;;;4.17;;
2728;SDS011;1372;47.956;7.830;2023-05-07T04:47:24;2.83;;;2.63;;
2728;SDS011;1372;47.956;7.830;2023-05-07T04:49:53;3.13;;;2.53;;
2728;SDS011;1372;47.956;7.830;2023-05-07T04:52:22;2.40;;;2.20;;
2728;SDS011;1372;47.956;7.830;2023-05-07T04:54:53;3.83;;;2.80;;
2728;SDS011;1372;47.956;7.830;2023-05-07T04:57:22;2.93;;;2.73;;
2728;SDS011;1372;47.956;7.830;2023-05-07T04:59:54;9.40;;;3.13;;
2728;SDS011;1372;47.956;7.830;2023-05-07T05:02:23;3.50;;;2.80;;
2728;SDS011;1372;47.956;7.830;2023-05-07T05:04:52;2.90;;;2.60;;
2728;SDS011;1372;47.956;7.830;2023-05-07T05:07:21;2.60;;;2.37;;
2728;SDS011;1372;47.956;7.830;2023-05-07T05:09:49;3.20;;;2.90;;
2728;SDS011;1372;47.956;7.830;2023-05-07T05:12:18;3.30;;;2.90;;
2728;SDS011;1372;47.956;7.830;2023-05-07T05:14:47;3.80;;;2.90;;
2728;SDS011;1372;47.956;7.830;2023-05-07T05:17:17;2.70;;;2.50;;
2728;SDS011;1372;47.956;7.830;2023-05-07T05:19:45;2.90;;;2.70;;
2728;SDS011;1372;47.956;7.830;2023-05-07T05:22:15;3.27;;;2.97;;
2728;SDS011;1372;47.956;7.830;2023-05-07T05:24:46;3.33;;;3.03;;
2728;SDS011;1372;47.956;7.830;2023-05-07T05:27:15;4.40;;;3.10;;
2728;SDS011;1372;47.956;7.830;2023-05-07T05:29:43;3.43;;;2.93;;
2728;SDS011;1372;47.956;7.830;2023-05-07T05:32:12;4.20;;;2.87;;
2728;SDS011;1372;47.956;7.830;2023-05-07T05:34:43;3.70;;;3.40;;
2728;SDS011;1372;47.956;7.830;2023-05-07T05:37:12;4.33;;;3.43;;
2728;SDS011;1372;47.956;7.830;2023-05-07T05:39:41;3.53;;;3.23;;
2728;SDS011;1372;47.956;7.830;2023-05-07T05:42:11;2.70;;;2.50;;
2728;SDS011;1372;47.956;7.830;2023-05-07T05:44:39;4.73;;;3.40;;
2728;SDS011;1372;47.956;7.830;2023-05-07T05:47:08;3.40;;;3.10;;
2728;SDS011;1372;47.956;7.830;2023-05-07T05:49:37;3.47;;;3.17;;
2728;SDS011;1372;47.956;7.830;2023-05-07T05:52:08;3.10;;;2.87;;
2728;SDS011;1372;47.956;7.830;2023-05-07T05:54:37;3.43;;;3.13;;
2728;SDS011;1372;47.956;7.830;2023-05-07T05:57:06;3.73;;;3.33;;
2728;SDS011;1372;47.956;7.830;2023-05-07T05:59:38;4.43;;;3.43;;
2728;SDS011;1372;47.956;7.830;2023-05-07T06:02:07;4.30;;;3.90;;
2728;SDS011;1372;47.956;7.830;2023-05-07T06:04:35;3.53;;;3.23;;
2728;SDS011;1372;47.956;7.830;2023-05-07T06:07:04;4.00;;;3.70;;
2728;SDS011;1372;47.956;7.830;2023-05-07T06:09:34;4.17;;;3.70;;
2728;SDS011;1372;47.956;7.830;2023-05-07T06:12:03;4.87;;;3.70;;
2728;SDS011;1372;47.956;7.830;2023-05-07T06:14:32;4.70;;;3.40;;
2728;SDS011;1372;47.956;7.830;2023-05-07T06:17:01;4.47;;;4.07;;
2728;SDS011;1372;47.956;7.830;2023-05-07T06:19:30;4.37;;;3.77;;
2728;SDS011;1372;47.956;7.830;2023-05-07T06:21:59;4.10;;;3.70;;
2728;SDS011;1372;47.956;7.830;2023-05-07T06:24:29;4.50;;;3.10;;
2728;SDS011;1372;47.956;7.830;2023-05-07T06:27:06;3.70;;;3.40;;
2728;SDS011;1372;47.956;7.830;2023-05-07T06:29:37;6.83;;;3.40;;
2728;SDS011;1372;47.956;7.830;2023-05-07T06:32:08;5.27;;;4.53;;
2728;SDS011;1372;47.956;7.830;2023-05-07T06:34:38;4.10;;;3.63;;
2728;SDS011;1372;47.956;7.830;2023-05-07T06:37:07;3.73;;;3.43;;
2728;SDS011;1372;47.956;7.830;2023-05-07T06:39:36;4.37;;;3.87;;
2728;SDS011;1372;47.956;7.830;2023-05-07T06:42:07;5.33;;;3.63;;
2728;SDS011;1372;47.956;7.830;2023-05-07T06:44:38;3.83;;;3.53;;
2728;SDS011;1372;47.956;7.830;2023-05-07T06:47:07;3.87;;;3.57;;
2728;SDS011;1372;47.956;7.830;2023-05-07T06:49:35;4.63;;;3.67;;
2728;SDS011;1372;47.956;7.830;2023-05-07T06:52:04;5.40;;;4.87;;
2728;SDS011;1372;47.956;7.830;2023-05-07T06:54:35;4.70;;;4.40;;
2728;SDS011;1372;47.956;7.830;2023-05-07T06:57:04;4.50;;;4.10;;
2728;SDS011;1372;47.956;7.830;2023-05-07T06:59:34;3.67;;;3.37;;
2728;SDS011;1372;47.956;7.830;2023-05-07T07:02:03;4.33;;;3.93;;
2728;SDS011;1372;47.956;7.830;2023-05-07T07:04:32;3.93;;;3.60;;
2728;SDS011;1372;47.956;7.830;2023-05-07T07:07:01;3.80;;;3.50;;
2728;SDS011;1372;47.956;7.830;2023-05-07T07:09:30;3.90;;;3.60;;
2728;SDS011;1372;47.956;7.830;2023-05-07T07:11:59;4.27;;;3.87;;
2728;SDS011;1372;47.956;7.830;2023-05-07T07:14:29;4.83;;;4.33;;
2728;SDS011;1372;47.956;7.830;2023-05-07T07:16:58;4.90;;;4.50;;
2728;SDS011;1372;47.956;7.830;2023-05-07T07:19:27;4.40;;;4.00;;
2728;SDS011;1372;47.956;7.830;2023-05-07T07:21:57;4.77;;;4.47;;
2728;SDS011;1372;47.956;7.830;2023-05-07T07:24:26;4.60;;;4.20;;
2728;SDS011;1372;47.956;7.830;2023-05-07T07:26:56;4.70;;;4.30;;
2728;SDS011;1372;47.956;7.830;2023-05-07T07:29:25;4.90;;;4.40;;
2728;SDS011;1372;47.956;7.830;2023-05-07T07:31:56;4.33;;;4.00;;
2728;SDS011;1372;47.956;7.830;2023-05-07T07:34:26;4.33;;;3.93;;
2728;SDS011;1372;47.956;7.830;2023-05-07T07:36:55;5.23;;;4.20;;
2728;SDS011;1372;47.956;7.830;2023-05-07T07:39:24;3.93;;;3.63;;
2728;SDS011;1372;47.956;7.830;2023-05-07T07:41:54;4.73;;;4.10;;
2728;SDS011;1372;47.956;7.830;2023-05-07T07:44:23;3.97;;;3.67;;
2728;SDS011;1372;47.956;7.830;2023-05-07T07:46:51;5.70;;;4.47;;
2728;SDS011;1372;47.956;7.830;2023-05-07T07:49:22;4.63;;;4.23;;
2728;SDS011;1372;47.956;7.830;2023-05-07T07:51:51;4.67;;;4.27;;
2728;SDS011;1372;47.956;7.830;2023-05-07T07:54:19;4.10;;;3.80;;
2728;SDS011;1372;47.956;7.830;2023-05-07T07:56:48;6.30;;;4.40;;
2728;SDS011;1372;47.956;7.830;2023-05-07T07:59:17;3.93;;;3.60;;
2728;SDS011;1372;47.956;7.830;2023-05-07T08:01:47;4.17;;;3.87;;
2728;SDS011;1372;47.956;7.830;2023-05-07T08:04:19;6.50;;;3.90;;
2728;SDS011;1372;47.956;7.830;2023-05-07T08:06:51;5.30;;;4.53;;
2728;SDS011;1372;47.956;7.830;2023-05-07T08:09:21;4.93;;;4.10;;
2728;SDS011;1372;47.956;7.830;2023-05-07T08:11:53;4.73;;;4.33;;
2728;SDS011;1372;47.956;7.830;2023-05-07T08:14:28;4.43;;;4.03;;
2728;SDS011;1372;47.956;7.830;2023-05-07T08:17:00;4.37;;;4.00;;
2728;SDS011;1372;47.956;7.830;2023-05-07T08:19:30;4.27;;;3.97;;
2728;SDS011;1372;47.956;7.830;2023-05-07T08:22:03;4.80;;;4.40;;
2728;SDS011;1372;47.956;7.830;2023-05-07T08:24:38;5.03;;;4.17;;
2728;SDS011;1372;47.956;7.830;2023-05-07T08:27:08;4.90;;;4.40;;
2728;SDS011;1372;47.956;7.830;2023-05-07T08:29:39;3.83;;;3.53;;
2728;SDS011;1372;47.956;7.830;2023-05-07T08:32:10;4.50;;;4.20;;
2728;SDS011;1372;47.956;7.830;2023-05-07T08:34:38;4.03;;;3.73;;
2728;SDS011;1372;47.956;7.830;2023-05-07T08:37:09;4.80;;;4.40;;
2728;SDS011;1372;47.956;7.830;2023-05-07T08:39:38;5.23;;;4.73;;
2728;SDS011;1372;47.956;7.830;2023-05-07T08:42:08;4.27;;;3.87;;
2728;SDS011;1372;47.956;7.830;2023-05-07T08:44:40;4.97;;;4.57;;
2728;SDS011;1372;47.956;7.830;2023-05-07T08:47:13;4.40;;;3.80;;
2728;SDS011;1372;47.956;7.830;2023-05-07T08:49:42;4.33;;;4.00;;
2728;SDS011;1372;47.956;7.830;2023-05-07T08:52:13;4.60;;;4.20;;
2728;SDS011;1372;47.956;7.830;2023-05-07T08:54:42;4.87;;;4.47;;
2728;SDS011;1372;47.956;7.830;2023-05-07T08:57:11;4.50;;;4.20;;
2728;SDS011;1372;47.956;7.830;2023-05-07T08:59:40;4.57;;;4.17;;
2728;SDS011;1372;47.956;7.830;2023-05-07T09:02:09;5.33;;;4.83;;
2728;SDS011;1372;47.956;7.830;2023-05-07T09:04:39;6.00;;;5.50;;
2728;SDS011;1372;47.956;7.830;2023-05-07T09:07:08;5.77;;;5.27;;
2728;SDS011;1372;47.956;7.830;2023-05-07T09:09:39;6.33;;;4.93;;
2728;SDS011;1372;47.956;7.830;2023-05-07T09:12:08;5.70;;;5.20;;
2728;SDS011;1372;47.956;7.830;2023-05-07T09:14:39;5.10;;;4.70;;
2728;SDS011;1372;47.956;7.830;2023-05-07T09:17:08;5.53;;;5.00;;
2728;SDS011;1372;47.956;7.830;2023-05-07T09:19:37;4.53;;;4.20;;
2728;SDS011;1372;47.956;7.830;2023-05-07T09:22:05;4.67;;;4.27;;
2728;SDS011;1372;47.956;7.830;2023-05-07T09:24:42;4.63;;;4.27;;
2728;SDS011;1372;47.956;7.830;2023-05-07T09:27:17;4.73;;;4.33;;
2728;SDS011;1372;47.956;7.830;2023-05-07T09:29:46;3.87;;;3.57;;
2728;SDS011;1372;47.956;7.830;2023-05-07T09:32:15;5.23;;;4.83;;
2728;SDS011;1372;47.956;7.830;2023-05-07T09:34:44;4.87;;;4.47;;
2728;SDS011;1372;47.956;7.830;2023-05-07T09:37:16;4.93;;;4.53;;
2728;SDS011;1372;47.956;7.830;2023-05-07T09:39:49;6.17;;;4.43;;
2728;SDS011;1372;47.956;7.830;2023-05-07T09:42:22;4.17;;;3.87;;
2728;SDS011;1372;47.956;7.830;2023-05-07T09:44:53;5.13;;;4.73;;
2728;SDS011;1372;47.956;7.830;2023-05-07T09:47:24;4.60;;;4.20;;
2728;SDS011;1372;47.956;7.830;2023-05-07T09:49:58;4.50;;;4.10;;
2728;SDS011;1372;47.956;7.830;2023-05-07T09:52:32;6.70;;;4.97;;
2728;SDS011;1372;47.956;7.830;2023-05-07T09:55:04;5.53;;;5.03;;
2728;SDS011;1372;47.956;7.830;2023-05-07T09:57:36;4.47;;;4.17;;
2728;SDS011;1372;47.956;7.830;2023-05-07T10:00:07;6.03;;;5.47;;
2728;SDS011;1372;47.956;7.830;2023-05-07T10:02:37;5.60;;;5.00;;
2728;SDS011;1372;47.956;7.830;2023-05-07T10:05:13;4.40;;;4.10;;
2728;SDS011;1372;47.956;7.830;2023-05-07T10:07:43;4.33;;;3.93;;
2728;SDS011;1372;47.956;7.830;2023-05-07T10:10:14;6.63;;;5.90;;
2728;SDS011;1372;47.956;7.830;2023-05-07T10:12:43;5.73;;;5.33;;
2728;SDS011;1372;47.956;7.830;2023-05-07T10:15:14;4.67;;;4.37;;
2728;SDS011;1372;47.956;7.830;2023-05-07T10:17:43;5.33;;;4.77;;
2728;SDS011;1372;47.956;7.830;2023-05-07T10:20:13;5.20;;;4.70;;
2728;SDS011;1372;47.956;7.830;2023-05-07T10:22:43;5.57;;;5.07;;
2728;SDS011;1372;47.956;7.830;2023-05-07T10:25:16;5.60;;;5.10;;
2728;SDS011;1372;47.956;7.830;2023-05-07T10:27:52;5.90;;;5.37;;
2728;SDS011;1372;47.956;7.830;2023-05-07T10:30:26;5.33;;;4.93;;
2728;SDS011;1372;47.956;7.830;2023-05-07T10:33:04;6.30;;;5.27;;
2728;SDS011;1372;47.956;7.830;2023-05-07T10:35:38;5.13;;;4.67;;
2728;SDS011;1372;47.956;7.830;2023-05-07T10:38:09;6.07;;;5.57;;
2728;SDS011;1372;47.956;7.830;2023-05-07T10:43:42;5.80;;;5.30;;
2728;SDS011;1372;47.956;7.830;2023-05-07T10:46:14;5.10;;;4.70;;
2728;SDS011;1372;47.956;7.830;2023-05-07T10:51:43;5.90;;;5.40;;
2728;SDS011;1372;47.956;7.830;2023-05-07T10:54:20;5.63;;;5.23;;
2728;SDS011;1372;47.956;7.830;2023-05-07T10:56:52;7.03;;;6.40;;
2728;SDS011;1372;47.956;7.830;2023-05-07T10:59:35;6.17;;;5.63;;
2728;SDS011;1372;47.956;7.830;2023-05-07T11:02:11;4.80;;;4.40;;
2728;SDS011;1372;47.956;7.830;2023-05-07T11:04:57;6.60;;;6.00;;
2728;SDS011;1372;47.956;7.830;2023-05-07T11:07:54;5.77;;;5.27;;
2728;SDS011;1372;47.956;7.830;2023-05-07T11:10:26;5.23;;;4.47;;
2728;SDS011;1372;47.956;7.830;2023-05-07T11:16:22;4.50;;;4.10;;
2728;SDS011;1372;47.956;7.830;2023-05-07T11:19:49;5.30;;;4.90;;
2728;SDS011;1372;47.956;7.830;2023-05-07T11:25:17;5.20;;;4.80;;
2728;SDS011;1372;47.956;7.830;2023-05-07T11:27:46;5.77;;;5.27;;
2728;SDS011;1372;47.956;7.830;2023-05-07T11:30:18;5.10;;;4.70;;
2728;SDS011;1372;47.956;7.830;2023-05-07T11:32:47;5.67;;;5.13;;
2728;SDS011;1372;47.956;7.830;2023-05-07T11:35:17;4.67;;;4.27;;
2728;SDS011;1372;47.956;7.830;2023-05-07T11:37:57;4.97;;;4.57;;
2728;SDS011;1372;47.956;7.830;2023-05-07T11:40:28;4.30;;;3.97;;
2728;SDS011;1372;47.956;7.830;2023-05-07T11:42:57;4.50;;;4.20;;
2728;SDS011;1372;47.956;7.830;2023-05-07T11:45:29;3.90;;;3.60;;
2728;SDS011;1372;47.956;7.830;2023-05-07T11:47:58;4.30;;;4.00;;
2728;SDS011;1372;47.956;7.830;2023-05-07T11:50:33;4.97;;;4.47;;
2728;SDS011;1372;47.956;7.830;2023-05-07T11:53:07;5.07;;;4.60;;
2728;SDS011;1372;47.956;7.830;2023-05-07T11:56:07;4.63;;;4.23;;
2728;SDS011;1372;47.956;7.830;2023-05-07T11:58:50;4.60;;;4.20;;
2728;SDS011;1372;47.956;7.830;2023-05-07T12:01:24;5.70;;;5.10;;
2728;SDS011;1372;47.956;7.830;2023-05-07T12:03:55;4.63;;;4.27;;
2728;SDS011;1372;47.956;7.830;2023-05-07T12:06:28;5.20;;;4.63;;
2728;SDS011;1372;47.956;7.830;2023-05-07T12:08:59;5.03;;;4.63;;
2728;SDS011;1372;47.956;7.830;2023-05-07T12:11:30;6.40;;;4.20;;
2728;SDS011;1372;47.956;7.830;2023-05-07T12:14:00;5.03;;;4.63;;
2728;SDS011;1372;47.956;7.830;2023-05-07T12:16:32;4.57;;;4.27;;
2728;SDS011;1372;47.956;7.830;2023-05-07T12:19:14;8.90;;;4.87;;
2728;SDS011;1372;47.956;7.830;2023-05-07T12:21:53;4.90;;;4.50;;
2728;SDS011;1372;47.956;7.830;2023-05-07T12:24:26;4.90;;;4.37;;
2728;SDS011;1372;47.956;7.830;2023-05-07T12:26:59;5.03;;;4.57;;
2728;SDS011;1372;47.956;7.830;2023-05-07T12:29:29;4.97;;;4.57;;
2728;SDS011;1372;47.956;7.830;2023-05-07T12:32:14;5.57;;;5.07;;
2728;SDS011;1372;47.956;7.830;2023-05-07T12:34:45;5.37;;;4.87;;
2728;SDS011;1372;47.956;7.830;2023-05-07T12:37:22;5.33;;;4.93;;
2728;SDS011;1372;47.956;7.830;2023-05-07T12:40:03;5.47;;;4.93;;
2728;SDS011;1372;47.956;7.830;2023-05-07T12:42:44;5.53;;;4.47;;
2728;SDS011;1372;47.956;7.830;2023-05-07T12:45:15;5.57;;;5.00;;
2728;SDS011;1372;47.956;7.830;2023-05-07T12:47:50;5.90;;;5.33;;
2728;SDS011;1372;47.956;7.830;2023-05-07T12:50:24;6.93;;;6.33;;
2728;SDS011;1372;47.956;7.830;2023-05-07T12:52:53;7.17;;;5.97;;
2728;SDS011;1372;47.956;7.830;2023-05-07T12:55:23;6.10;;;5.60;;
2728;SDS011;1372;47.956;7.830;2023-05-07T12:57:54;6.13;;;5.33;;
2728;SDS011;1372;47.956;7.830;2023-05-07T13:00:33;5.80;;;5.40;;
2728;SDS011;1372;47.956;7.830;2023-05-07T13:03:05;4.83;;;4.43;;
2728;SDS011;1372;47.956;7.830;2023-05-07T13:05:37;5.73;;;5.23;;
2728;SDS011;1372;47.956;7.830;2023-05-07T13:08:07;4.60;;;4.20;;
2728;SDS011;1372;47.956;7.830;2023-05-07T13:10:37;6.40;;;5.73;;
2728;SDS011;1372;47.956;7.830;2023-05-07T13:13:09;5.87;;;5.30;;
2728;SDS011;1372;47.956;7.830;2023-05-07T13:15:38;4.37;;;3.97;;
2728;SDS011;1372;47.956;7.830;2023-05-07T13:18:09;7.10;;;4.50;;
2728;SDS011;1372;47.956;7.830;2023-05-07T13:20:38;6.50;;;4.90;;
2728;SDS011;1372;47.956;7.830;2023-05-07T13:23:07;4.63;;;3.70;;
2728;SDS011;1372;47.956;7.830;2023-05-07T13:25:36;5.07;;;4.53;;
2728;SDS011;1372;47.956;7.830;2023-05-07T13:28:06;4.33;;;4.00;;
2728;SDS011;1372;47.956;7.830;2023-05-07T13:30:37;4.33;;;4.03;;
2728;SDS011;1372;47.956;7.830;2023-05-07T13:33:08;4.93;;;4.43;;
2728;SDS011;1372;47.956;7.830;2023-05-07T13:35:38;4.77;;;4.37;;
2728;SDS011;1372;47.956;7.830;2023-05-07T13:38:07;5.17;;;4.80;;
2728;SDS011;1372;47.956;7.830;2023-05-07T13:40:37;5.30;;;4.80;;
2728;SDS011;1372;47.956;7.830;2023-05-07T13:43:06;5.30;;;4.90;;
2728;SDS011;1372;47.956;7.830;2023-05-07T13:45:35;5.60;;;5.10;;
2728;SDS011;1372;47.956;7.830;2023-05-07T13:48:05;5.13;;;4.73;;
2728;SDS011;1372;47.956;7.830;2023-05-07T13:50:37;4.90;;;4.50;;
2728;SDS011;1372;47.956;7.830;2023-05-07T13:53:07;5.40;;;5.00;;
2728;SDS011;1372;47.956;7.830;2023-05-07T13:55:36;5.03;;;4.70;;
2728;SDS011;1372;47.956;7.830;2023-05-07T13:58:05;5.90;;;4.87;;
2728;SDS011;1372;47.956;7.830;2023-05-07T14:00:34;4.47;;;4.17;;
2728;SDS011;1372;47.956;7.830;2023-05-07T14:03:04;4.97;;;4.63;;
2728;SDS011;1372;47.956;7.830;2023-05-07T14:05:39;4.67;;;4.27;;
2728;SDS011;1372;47.956;7.830;2023-05-07T14:08:08;5.50;;;4.63;;
2728;SDS011;1372;47.956;7.830;2023-05-07T14:10:37;4.97;;;4.50;;
2728;SDS011;1372;47.956;7.830;2023-05-07T14:13:08;4.97;;;4.57;;
2728;SDS011;1372;47.956;7.830;2023-05-07T14:15:37;5.10;;;4.20;;
2728;SDS011;1372;47.956;7.830;2023-05-07T14:18:07;4.07;;;3.77;;
2728;SDS011;1372;47.956;7.830;2023-05-07T14:20:36;4.30;;;4.00;;
2728;SDS011;1372;47.956;7.830;2023-05-07T14:23:06;4.50;;;4.10;;
2728;SDS011;1372;47.956;7.830;2023-05-07T14:25:35;4.73;;;4.33;;
2728;SDS011;1372;47.956;7.830;2023-05-07T14:28:04;3.80;;;3.50;;
2728;SDS011;1372;47.956;7.830;2023-05-07T14:30:34;3.90;;;3.60;;
2728;SDS011;1372;47.956;7.830;2023-05-07T14:33:03;4.93;;;3.40;;
2728;SDS011;1372;47.956;7.830;2023-05-07T14:35:35;4.77;;;4.37;;
2728;SDS011;1372;47.956;7.830;2023-05-07T14:38:04;4.33;;;3.93;;
2728;SDS011;1372;47.956;7.830;2023-05-07T14:40:34;4.27;;;3.33;;
2728;SDS011;1372;47.956;7.830;2023-05-07T14:43:06;4.37;;;3.97;;
2728;SDS011;1372;47.956;7.830;2023-05-07T14:45:34;3.00;;;2.80;;
2728;SDS011;1372;47.956;7.830;2023-05-07T14:48:04;4.93;;;4.27;;
2728;SDS011;1372;47.956;7.830;2023-05-07T14:50:35;3.43;;;3.07;;
2728;SDS011;1372;47.956;7.830;2023-05-07T14:53:06;3.63;;;3.33;;
2728;SDS011;1372;47.956;7.830;2023-05-07T14:55:38;3.70;;;3.40;;
2728;SDS011;1372;47.956;7.830;2023-05-07T14:58:10;4.30;;;3.80;;
2728;SDS011;1372;47.956;7.830;2023-05-07T15:00:39;3.33;;;3.13;;
2728;SDS011;1372;47.956;7.830;2023-05-07T15:03:09;3.70;;;3.40;;
2728;SDS011;1372;47.956;7.830;2023-05-07T15:05:40;2.77;;;2.57;;
2728;SDS011;1372;47.956;7.830;2023-05-07T15:08:10;2.50;;;2.30;;
2728;SDS011;1372;47.956;7.830;2023-05-07T15:10:39;2.50;;;2.30;;
2728;SDS011;1372;47.956;7.830;2023-05-07T15:13:09;2.53;;;2.33;;
2728;SDS011;1372;47.956;7.830;2023-05-07T15:15:41;2.40;;;1.83;;
2728;SDS011;1372;47.956;7.830;2023-05-07T15:18:11;1.80;;;1.70;;
2728;SDS011;1372;47.956;7.830;2023-05-07T15:20:40;3.33;;;2.10;;
2728;SDS011;1372;47.956;7.830;2023-05-07T15:23:11;3.60;;;1.97;;
2728;SDS011;1372;47.956;7.830;2023-05-07T15:25:41;1.90;;;1.80;;
2728;SDS011;1372;47.956;7.830;2023-05-07T15:28:09;2.00;;;1.83;;
2728;SDS011;1372;47.956;7.830;2023-05-07T15:30:38;1.60;;;1.50;;
2728;SDS011;1372;47.956;7.830;2023-05-07T15:33:07;3.50;;;3.20;;
2728;SDS011;1372;47.956;7.830;2023-05-07T15:35:36;2.30;;;2.00;;
2728;SDS011;1372;47.956;7.830;2023-05-07T15:38:06;1.63;;;1.53;;
2728;SDS011;1372;47.956;7.830;2023-05-07T15:40:37;1.90;;;1.80;;
2728;SDS011;1372;47.956;7.830;2023-05-07T15:43:11;2.87;;;1.87;;
2728;SDS011;1372;47.956;7.830;2023-05-07T15:45:40;2.10;;;2.00;;
2728;SDS011;1372;47.956;7.830;2023-05-07T15:48:10;2.20;;;2.07;;